Walnut City, Iowa
Current Conditions -  °F | °C
As of 1:10 AM on Saturday 20 Dec 2014 (Local Time) from KTVK Reporting Station
Haze Haze  
Wind Chill: 26°   Ceiling: 100
Heat Index: 32°   Visibility: 4mi
Dew Point: 32°   Wind: 7mph
Humidity: 100%   Direction: 140°SE
Pressure: 30.2"   Gusts: NA
Location:  40.8017°N, 92.9289°W
Report Text: KTVK 200710Z AUTO 14006KT 4SM BR OVC001 00/00 A3020 RMK AO2
Loading
Personal Weather Stations






























Interactive Weather Map New forecast layout! Learn more

10-Day Weather Forecast

Advertisements
Track Severe Weather on mobile